Time;durP1;ratioP1;P1;durP2;ratioP2;P2;SDS_P1;SDS_P2;PMS_P1;PMS_P2;Temp;Humidity;BMP_temperature;BMP_pressure;BME280_temperature;BME280_humidity;BME280_pressure;Samples;Min_cycle;Max_cycle;Signal;HPM_P1;HPM_P2
2023/05/25 00:01:33;;;;;;;17.10;7.83;;;;;;;;;;5029133;28;20522;-61
2023/05/25 00:03:59;;;;;;;22.07;8.90;;;;;;;;;;5029077;28;20041;-61
2023/05/25 00:06:26;;;;;;;20.47;8.77;;;;;;;;;;5029033;28;20512;-60
2023/05/25 00:08:54;;;;;;;16.87;8.33;;;;;;;;;;5028345;28;20045;-60
2023/05/25 00:11:22;;;;;;;20.70;8.13;;;;;;;;;;5028512;28;20045;-61
2023/05/25 00:13:48;;;;;;;22.17;8.97;;;;;;;;;;5047664;28;20041;-61
2023/05/25 00:16:14;;;;;;;22.57;8.60;;;;;;;;;;5035711;28;20045;-60
2023/05/25 00:18:42;;;;;;;30.93;10.77;;;;;;;;;;5028286;28;20053;-61
2023/05/25 00:21:08;;;;;;;29.10;9.97;;;;;;;;;;5028830;28;20049;-60
2023/05/25 00:23:34;;;;;;;14.43;7.37;;;;;;;;;;5027698;28;20073;-61
2023/05/25 00:26:02;;;;;;;23.10;7.47;;;;;;;;;;5028445;28;20132;-61
2023/05/25 00:28:28;;;;;;;24.30;10.40;;;;;;;;;;5027968;28;20041;-61
2023/05/25 00:30:54;;;;;;;17.80;8.37;;;;;;;;;;5028165;28;20049;-61
2023/05/25 00:33:21;;;;;;;20.63;8.20;;;;;;;;;;5028701;28;20488;-61
2023/05/25 00:35:47;;;;;;;29.93;10.37;;;;;;;;;;5028669;28;20056;-61
2023/05/25 00:38:13;;;;;;;29.07;11.37;;;;;;;;;;5028068;28;20088;-61
2023/05/25 00:40:40;;;;;;;18.33;8.67;;;;;;;;;;5027694;28;20523;-61
2023/05/25 00:43:10;;;;;;;29.53;10.83;;;;;;;;;;5027406;28;20060;-61
2023/05/25 00:45:36;;;;;;;28.77;11.83;;;;;;;;;;5028008;28;20045;-61
2023/05/25 00:48:03;;;;;;;26.60;11.20;;;;;;;;;;5028528;28;20052;-61
2023/05/25 00:50:38;;;;;;;27.93;10.63;;;;;;;;;;5030046;28;20045;-61
2023/05/25 00:53:05;;;;;;;25.83;10.73;;;;;;;;;;5041739;28;20041;-61
2023/05/25 00:55:33;;;;;;;24.53;9.97;;;;;;;;;;5028355;28;20060;-61
2023/05/25 00:58:00;;;;;;;27.83;12.10;;;;;;;;;;5028045;28;20041;-61
2023/05/25 01:00:28;;;;;;;27.83;9.87;;;;;;;;;;5028294;28;20053;-61
2023/05/25 01:02:55;;;;;;;20.60;9.40;;;;;;;;;;5028489;28;20046;-61
2023/05/25 01:05:24;;;;;;;25.10;10.43;;;;;;;;;;5028447;28;20042;-61
2023/05/25 01:07:52;;;;;;;23.10;10.03;;;;;;;;;;5027993;28;20045;-61
2023/05/25 01:10:20;;;;;;;25.43;10.37;;;;;;;;;;5028358;28;20099;-61
2023/05/25 01:12:46;;;;;;;33.17;11.50;;;;;;;;;;5027768;28;20144;-61
2023/05/25 01:15:12;;;;;;;32.70;12.60;;;;;;;;;;5028231;28;20041;-61
2023/05/25 01:17:38;;;;;;;25.50;10.43;;;;;;;;;;5028040;28;20100;-61
2023/05/25 01:20:08;;;;;;;26.47;10.97;;;;;;;;;;5032920;28;20041;-61
2023/05/25 01:22:37;;;;;;;25.13;10.03;;;;;;;;;;5047700;28;20041;-60
2023/05/25 01:25:07;;;;;;;32.93;11.13;;;;;;;;;;5048114;28;20512;-60
2023/05/25 01:27:54;;;;;;;30.30;10.53;;;;;;;;;;5048240;28;20052;-61
2023/05/25 01:30:21;;;;;;;24.07;10.70;;;;;;;;;;5047900;28;20045;-61
2023/05/25 01:32:48;;;;;;;22.63;8.90;;;;;;;;;;5047172;28;20065;-60
2023/05/25 01:35:14;;;;;;;13.63;6.70;;;;;;;;;;5048624;28;20499;-61
2023/05/25 01:37:47;;;;;;;30.80;10.27;;;;;;;;;;5051758;28;20041;-60
2023/05/25 01:40:14;;;;;;;18.17;8.30;;;;;;;;;;5036536;28;20130;-61
2023/05/25 01:42:40;;;;;;;20.10;7.97;;;;;;;;;;5031528;28;20037;-61
2023/05/25 01:45:07;;;;;;;15.93;7.37;;;;;;;;;;5031106;28;20657;-61
2023/05/25 01:47:52;;;;;;;10.87;6.20;;;;;;;;;;5030833;28;20053;-61
2023/05/25 01:50:23;;;;;;;12.80;6.43;;;;;;;;;;5029789;28;20061;-61
2023/05/25 01:53:15;;;;;;;18.17;7.83;;;;;;;;;;5031409;28;20415;-61
2023/05/25 01:55:47;;;;;;;21.40;8.53;;;;;;;;;;5029298;28;20092;-60
2023/05/25 01:58:14;;;;;;;19.57;8.30;;;;;;;;;;5034731;28;20051;-61
2023/05/25 02:00:41;;;;;;;20.20;8.73;;;;;;;;;;5038915;28;20049;-61
2023/05/25 02:03:08;;;;;;;33.00;11.00;;;;;;;;;;5031462;28;20056;-61
2023/05/25 02:05:35;;;;;;;37.77;13.40;;;;;;;;;;5031528;28;20053;-61
2023/05/25 02:08:01;;;;;;;41.97;13.43;;;;;;;;;;5031242;28;20494;-60
2023/05/25 02:10:27;;;;;;;29.03;12.17;;;;;;;;;;5029733;28;20064;-60
2023/05/25 02:12:53;;;;;;;36.93;12.57;;;;;;;;;;5031718;28;20056;-61
2023/05/25 02:15:21;;;;;;;31.17;11.47;;;;;;;;;;5031284;28;20045;-60
2023/05/25 02:17:47;;;;;;;25.23;11.33;;;;;;;;;;5031502;28;20132;-61
2023/05/25 02:20:13;;;;;;;33.00;12.30;;;;;;;;;;5042018;28;20052;-60
2023/05/25 02:22:39;;;;;;;36.13;13.37;;;;;;;;;;5051211;28;20087;-61
2023/05/25 02:25:07;;;;;;;26.53;11.53;;;;;;;;;;5051167;28;20044;-60
2023/05/25 02:27:33;;;;;;;40.30;14.30;;;;;;;;;;5051017;28;20102;-60
2023/05/25 02:29:59;;;;;;;31.57;11.73;;;;;;;;;;5051163;28;20045;-61
2023/05/25 02:32:28;;;;;;;25.77;10.27;;;;;;;;;;5050407;28;20139;-60
2023/05/25 02:34:54;;;;;;;23.70;10.47;;;;;;;;;;5051212;28;20044;-60
2023/05/25 02:37:20;;;;;;;29.73;12.47;;;;;;;;;;5050489;28;20037;-61
2023/05/25 02:39:46;;;;;;;25.77;10.57;;;;;;;;;;5050628;28;20076;-61
2023/05/25 02:42:13;;;;;;;30.30;11.53;;;;;;;;;;5050695;28;20086;-61
2023/05/25 02:44:39;;;;;;;28.70;12.47;;;;;;;;;;5050956;28;20054;-60
2023/05/25 02:47:06;;;;;;;35.63;13.70;;;;;;;;;;5049410;28;20483;-61
2023/05/25 02:49:33;;;;;;;27.67;12.77;;;;;;;;;;5043349;28;20049;-61
2023/05/25 02:51:59;;;;;;;44.67;14.60;;;;;;;;;;5030498;28;20543;-61
2023/05/25 02:54:25;;;;;;;37.07;13.30;;;;;;;;;;5030547;28;20050;-60
2023/05/25 02:56:51;;;;;;;34.37;13.53;;;;;;;;;;5030732;28;20575;-60
2023/05/25 02:59:17;;;;;;;35.87;13.37;;;;;;;;;;5030180;28;20100;-60
2023/05/25 03:01:44;;;;;;;33.20;13.33;;;;;;;;;;5030409;28;20060;-61
2023/05/25 03:04:10;;;;;;;37.83;13.27;;;;;;;;;;5030255;28;20124;-61
2023/05/25 03:06:36;;;;;;;33.43;12.67;;;;;;;;;;5033568;28;20091;-61
2023/05/25 03:09:04;;;;;;;27.73;11.93;;;;;;;;;;5040921;28;20045;-61
2023/05/25 03:11:30;;;;;;;29.70;12.57;;;;;;;;;;5029951;28;20091;-60
2023/05/25 03:13:57;;;;;;;41.57;16.00;;;;;;;;;;5029733;28;20059;-60
2023/05/25 03:16:23;;;;;;;35.17;14.07;;;;;;;;;;5029911;28;20049;-60
2023/05/25 03:18:49;;;;;;;39.53;14.00;;;;;;;;;;5030267;28;20067;-61
2023/05/25 03:21:15;;;;;;;22.20;9.33;;;;;;;;;;5048271;28;20056;-61
2023/05/25 03:23:41;;;;;;;21.57;10.33;;;;;;;;;;5048474;28;20064;-60
2023/05/25 03:26:07;;;;;;;30.50;11.63;;;;;;;;;;5049352;28;20470;-60
2023/05/25 03:28:33;;;;;;;25.60;10.80;;;;;;;;;;5049843;28;20094;-60
2023/05/25 03:31:00;;;;;;;23.20;10.63;;;;;;;;;;5049037;28;20045;-60
2023/05/25 03:33:26;;;;;;;39.87;13.80;;;;;;;;;;5049595;28;20055;-61
2023/05/25 03:35:52;;;;;;;30.50;13.83;;;;;;;;;;5049376;28;20048;-61
2023/05/25 03:38:18;;;;;;;33.00;13.87;;;;;;;;;;5049218;28;20048;-61
2023/05/25 03:40:44;;;;;;;38.90;13.80;;;;;;;;;;5048858;28;20399;-60
2023/05/25 03:43:10;;;;;;;34.93;14.33;;;;;;;;;;5049228;28;20052;-61
2023/05/25 03:45:36;;;;;;;41.90;15.23;;;;;;;;;;5048966;28;20059;-61
2023/05/25 03:48:02;;;;;;;34.13;12.60;;;;;;;;;;5031368;28;20045;-60
2023/05/25 03:50:28;;;;;;;34.93;13.00;;;;;;;;;;5041975;28;20496;-60
2023/05/25 03:52:54;;;;;;;35.57;12.70;;;;;;;;;;5028803;28;20057;-60
2023/05/25 03:55:20;;;;;;;32.43;13.57;;;;;;;;;;5028270;28;20048;-60
2023/05/25 03:57:47;;;;;;;45.00;15.60;;;;;;;;;;5047658;28;20037;-60
2023/05/25 04:00:13;;;;;;;38.40;16.37;;;;;;;;;;5048831;28;20507;-60
2023/05/25 04:02:39;;;;;;;31.63;13.17;;;;;;;;;;5048778;28;20453;-61
2023/05/25 04:05:05;;;;;;;36.90;14.47;;;;;;;;;;5047137;28;20555;-60
2023/05/25 04:07:32;;;;;;;46.33;18.03;;;;;;;;;;5048775;28;20049;-60
2023/05/25 04:09:58;;;;;;;37.23;15.87;;;;;;;;;;5048737;28;20079;-60
2023/05/25 04:12:25;;;;;;;31.70;14.70;;;;;;;;;;5049053;28;20049;-61
2023/05/25 04:14:51;;;;;;;36.47;15.03;;;;;;;;;;5047884;28;20052;-60
2023/05/25 04:17:18;;;;;;;32.50;13.73;;;;;;;;;;5048126;28;20052;-60
2023/05/25 04:19:44;;;;;;;51.53;17.13;;;;;;;;;;5048564;28;20049;-60
2023/05/25 04:22:10;;;;;;;37.63;15.00;;;;;;;;;;5048637;28;20098;-61
2023/05/25 04:24:36;;;;;;;49.30;17.60;;;;;;;;;;5048020;28;20052;-60
2023/05/25 04:27:02;;;;;;;27.37;11.63;;;;;;;;;;5034961;28;20056;-61
2023/05/25 04:29:28;;;;;;;33.57;13.60;;;;;;;;;;5028371;28;20526;-60
2023/05/25 04:31:54;;;;;;;31.27;14.33;;;;;;;;;;5028421;28;20119;-61
2023/05/25 04:34:22;;;;;;;35.80;14.77;;;;;;;;;;5028622;28;20484;-61
2023/05/25 04:36:48;;;;;;;47.90;16.90;;;;;;;;;;5028043;28;20041;-60
2023/05/25 04:39:14;;;;;;;40.63;15.63;;;;;;;;;;5030881;28;20053;-61
2023/05/25 04:41:41;;;;;;;45.27;18.50;;;;;;;;;;5048260;28;20076;-61
2023/05/25 04:44:08;;;;;;;48.93;19.60;;;;;;;;;;5048109;28;20045;-61
2023/05/25 04:46:37;;;;;;;47.93;19.40;;;;;;;;;;5048322;28;20097;-61
2023/05/25 04:49:07;;;;;;;44.33;19.20;;;;;;;;;;5048095;28;20056;-60
2023/05/25 04:51:33;;;;;;;56.97;21.03;;;;;;;;;;5047591;28;20049;-61
2023/05/25 04:53:59;;;;;;;49.67;20.57;;;;;;;;;;5048091;28;20052;-61
2023/05/25 04:56:25;;;;;;;50.27;19.17;;;;;;;;;;5039395;28;20164;-61
2023/05/25 04:58:51;;;;;;;54.67;21.63;;;;;;;;;;5028070;28;20483;-60
2023/05/25 05:01:19;;;;;;;44.63;17.97;;;;;;;;;;5033131;28;20056;-61
2023/05/25 05:03:45;;;;;;;42.53;16.77;;;;;;;;;;5047675;28;20072;-60
2023/05/25 05:06:11;;;;;;;50.63;21.27;;;;;;;;;;5048124;28;20056;-61
2023/05/25 05:08:37;;;;;;;53.57;22.63;;;;;;;;;;5047659;28;20077;-61
2023/05/25 05:11:04;;;;;;;48.03;20.67;;;;;;;;;;5049123;28;20499;-60
2023/05/25 05:13:30;;;;;;;50.47;21.50;;;;;;;;;;5052043;28;20480;-61
2023/05/25 05:15:56;;;;;;;54.83;24.87;;;;;;;;;;5052201;28;20045;-60
2023/05/25 05:18:22;;;;;;;56.70;24.60;;;;;;;;;;5051745;28;20041;-61
2023/05/25 05:20:48;;;;;;;52.60;22.77;;;;;;;;;;5035997;28;20172;-61
2023/05/25 05:23:14;;;;;;;65.33;27.27;;;;;;;;;;5032098;28;20138;-60
2023/05/25 05:25:40;;;;;;;62.30;26.10;;;;;;;;;;5031630;28;20052;-61
2023/05/25 05:28:06;;;;;;;61.40;25.10;;;;;;;;;;5032377;28;20065;-60
2023/05/25 05:30:33;;;;;;;79.87;30.60;;;;;;;;;;5039982;28;20102;-61
2023/05/25 05:32:59;;;;;;;57.67;26.30;;;;;;;;;;5046448;28;20065;-61
2023/05/25 05:35:25;;;;;;;66.87;27.77;;;;;;;;;;5042737;28;20470;-61
2023/05/25 05:37:51;;;;;;;70.47;27.83;;;;;;;;;;5042788;28;20446;-61
2023/05/25 05:40:17;;;;;;;56.93;28.07;;;;;;;;;;5033016;28;20049;-61
2023/05/25 05:42:43;;;;;;;46.03;22.77;;;;;;;;;;5031126;28;20054;-60
2023/05/25 05:45:09;;;;;;;40.70;21.33;;;;;;;;;;5031598;28;20041;-61
2023/05/25 05:47:36;;;;;;;45.00;24.00;;;;;;;;;;5031546;28;20127;-61
2023/05/25 05:50:02;;;;;;;50.50;23.77;;;;;;;;;;5030532;28;20049;-61
2023/05/25 05:52:28;;;;;;;53.47;23.80;;;;;;;;;;5031467;28;20051;-61
2023/05/25 05:54:54;;;;;;;42.23;21.33;;;;;;;;;;5031252;28;20084;-62
2023/05/25 05:57:20;;;;;;;52.40;24.10;;;;;;;;;;5031187;28;20093;-62
2023/05/25 05:59:46;;;;;;;51.53;21.83;;;;;;;;;;5030637;28;20504;-62
2023/05/25 06:02:13;;;;;;;58.27;26.53;;;;;;;;;;5031009;28;20053;-63
2023/05/25 06:04:39;;;;;;;58.83;28.80;;;;;;;;;;5031322;28;20041;-63
2023/05/25 06:07:05;;;;;;;49.80;23.93;;;;;;;;;;5035858;28;20037;-62
2023/05/25 06:09:31;;;;;;;40.93;21.67;;;;;;;;;;5050538;28;20056;-63
2023/05/25 06:11:57;;;;;;;64.60;31.33;;;;;;;;;;5046983;28;20056;-62
2023/05/25 06:14:23;;;;;;;56.33;26.00;;;;;;;;;;5048714;28;20510;-63
2023/05/25 06:16:49;;;;;;;52.33;24.37;;;;;;;;;;5040304;28;21279;-62
2023/05/25 06:19:16;;;;;;;44.73;22.00;;;;;;;;;;5050357;28;20521;-62
2023/05/25 06:21:42;;;;;;;48.00;24.67;;;;;;;;;;5049258;28;20056;-60
2023/05/25 06:24:08;;;;;;;49.20;24.10;;;;;;;;;;5050272;28;20095;-62
2023/05/25 06:26:34;;;;;;;38.57;20.83;;;;;;;;;;5046365;28;20172;-62
2023/05/25 06:29:00;;;;;;;39.17;18.67;;;;;;;;;;5043113;28;20041;-60
2023/05/25 06:31:26;;;;;;;33.07;17.80;;;;;;;;;;5029981;28;20476;-61
2023/05/25 06:33:52;;;;;;;29.47;14.43;;;;;;;;;;5040392;28;20060;-61
2023/05/25 06:36:19;;;;;;;26.67;15.13;;;;;;;;;;5049396;28;20079;-61
2023/05/25 06:38:46;;;;;;;29.67;16.07;;;;;;;;;;5049320;28;20045;-61
2023/05/25 06:41:13;;;;;;;40.87;16.70;;;;;;;;;;5049040;28;20040;-61
2023/05/25 06:43:41;;;;;;;26.97;13.30;;;;;;;;;;5049882;28;20060;-60
2023/05/25 06:46:09;;;;;;;31.53;15.27;;;;;;;;;;5049891;28;20053;-61
2023/05/25 06:48:36;;;;;;;41.13;18.37;;;;;;;;;;5049451;28;20056;-61
2023/05/25 06:51:02;;;;;;;39.40;14.97;;;;;;;;;;5049863;28;20041;-61
2023/05/25 06:53:28;;;;;;;33.70;15.80;;;;;;;;;;5050106;28;21056;-61
2023/05/25 06:55:54;;;;;;;26.23;12.33;;;;;;;;;;5049950;28;20052;-61
2023/05/25 06:58:20;;;;;;;30.70;11.73;;;;;;;;;;5049592;28;20388;-61
2023/05/25 07:00:46;;;;;;;20.43;9.17;;;;;;;;;;5049293;28;20095;-60
2023/05/25 07:03:12;;;;;;;19.60;8.60;;;;;;;;;;5050217;28;20056;-61
2023/05/25 07:05:38;;;;;;;17.67;9.20;;;;;;;;;;5049929;28;20060;-61
2023/05/25 07:08:05;;;;;;;19.70;9.73;;;;;;;;;;5049715;28;20427;-61
2023/05/25 07:10:31;;;;;;;23.77;8.93;;;;;;;;;;5049198;28;20049;-61
2023/05/25 07:12:57;;;;;;;20.73;8.87;;;;;;;;;;5049381;28;20053;-61
2023/05/25 07:15:23;;;;;;;21.60;7.23;;;;;;;;;;5049456;28;20043;-61
2023/05/25 07:17:49;;;;;;;26.57;7.70;;;;;;;;;;5049842;28;20044;-61
2023/05/25 07:20:15;;;;;;;14.90;6.87;;;;;;;;;;5049158;28;20477;-61
2023/05/25 07:22:42;;;;;;;23.57;7.63;;;;;;;;;;5049379;28;20049;-61
2023/05/25 07:25:08;;;;;;;21.20;6.43;;;;;;;;;;5049470;28;20106;-61
2023/05/25 07:27:34;;;;;;;17.67;5.63;;;;;;;;;;5049174;28;20095;-61
2023/05/25 07:30:01;;;;;;;15.97;6.17;;;;;;;;;;5049579;28;20055;-61
2023/05/25 07:32:27;;;;;;;16.53;4.67;;;;;;;;;;5048460;28;20144;-61
2023/05/25 07:34:53;;;;;;;15.37;4.97;;;;;;;;;;5049007;28;20176;-61
2023/05/25 07:37:19;;;;;;;20.53;5.70;;;;;;;;;;5049103;28;20086;-61
2023/05/25 07:39:45;;;;;;;16.23;4.37;;;;;;;;;;5048904;28;20049;-61
2023/05/25 07:42:11;;;;;;;15.07;3.97;;;;;;;;;;5048391;28;20041;-62
2023/05/25 07:44:37;;;;;;;14.13;3.83;;;;;;;;;;5048827;28;20466;-61
2023/05/25 07:47:05;;;;;;;13.50;3.87;;;;;;;;;;5048907;28;20141;-62
2023/05/25 07:49:31;;;;;;;11.27;3.33;;;;;;;;;;5048580;28;20075;-62
2023/05/25 07:51:57;;;;;;;14.43;4.07;;;;;;;;;;5048817;28;20080;-62
2023/05/25 07:54:23;;;;;;;15.17;3.77;;;;;;;;;;5048856;28;20515;-61
2023/05/25 07:56:49;;;;;;;16.13;3.70;;;;;;;;;;5048074;28;20041;-62
2023/05/25 07:59:15;;;;;;;12.10;3.07;;;;;;;;;;5048519;28;20423;-62
2023/05/25 08:01:41;;;;;;;14.10;3.27;;;;;;;;;;5048836;28;20041;-62
2023/05/25 08:04:08;;;;;;;11.40;3.23;;;;;;;;;;5048727;28;20047;-62
2023/05/25 08:06:33;;;;;;;13.77;3.43;;;;;;;;;;5048854;28;20076;-62
2023/05/25 08:09:00;;;;;;;13.90;3.20;;;;;;;;;;5048658;28;20076;-61
2023/05/25 08:11:26;;;;;;;10.67;2.93;;;;;;;;;;5048258;28;20104;-62
2023/05/25 08:13:52;;;;;;;15.43;5.07;;;;;;;;;;5048764;28;20091;-62
2023/05/25 08:16:18;;;;;;;16.87;3.30;;;;;;;;;;5048818;28;20041;-61
2023/05/25 08:18:45;;;;;;;13.87;3.83;;;;;;;;;;5048368;28;20383;-62
2023/05/25 08:21:12;;;;;;;11.77;3.10;;;;;;;;;;5047887;28;20502;-61
2023/05/25 08:23:41;;;;;;;19.57;5.50;;;;;;;;;;5048494;28;20070;-62
2023/05/25 08:26:07;;;;;;;14.63;4.27;;;;;;;;;;5048246;28;20457;-62
2023/05/25 08:28:33;;;;;;;12.93;3.77;;;;;;;;;;5048190;28;20522;-62
2023/05/25 08:30:59;;;;;;;12.60;3.30;;;;;;;;;;5047719;28;20048;-62
2023/05/25 08:33:25;;;;;;;11.83;3.47;;;;;;;;;;5048161;28;20088;-62
2023/05/25 08:35:51;;;;;;;15.63;5.00;;;;;;;;;;5048239;28;20086;-62
2023/05/25 08:38:17;;;;;;;12.53;3.33;;;;;;;;;;5047771;28;20418;-62
2023/05/25 08:40:44;;;;;;;12.07;4.00;;;;;;;;;;5047980;28;20367;-62
2023/05/25 08:43:11;;;;;;;10.20;3.07;;;;;;;;;;5047786;28;20037;-62
2023/05/25 08:45:37;;;;;;;14.77;4.60;;;;;;;;;;5046813;28;20052;-62
2023/05/25 08:48:06;;;;;;;12.53;3.40;;;;;;;;;;5048085;28;20055;-62
2023/05/25 08:50:33;;;;;;;13.23;3.60;;;;;;;;;;5048146;28;20048;-62
2023/05/25 08:53:00;;;;;;;11.70;3.97;;;;;;;;;;5048348;28;20534;-62
2023/05/25 08:55:28;;;;;;;11.70;3.30;;;;;;;;;;5047692;28;20363;-62
2023/05/25 08:58:11;;;;;;;13.57;3.73;;;;;;;;;;5047875;28;20080;-62
2023/05/25 09:00:42;;;;;;;14.93;3.80;;;;;;;;;;5047205;28;20462;-62
2023/05/25 09:03:17;;;;;;;13.83;3.40;;;;;;;;;;5047688;28;20534;-62
2023/05/25 09:05:43;;;;;;;13.57;3.67;;;;;;;;;;5047830;28;20382;-62
2023/05/25 09:08:10;;;;;;;15.10;3.80;;;;;;;;;;5047826;28;20040;-62
2023/05/25 09:10:37;;;;;;;12.97;3.47;;;;;;;;;;5047349;28;20056;-62
2023/05/25 09:13:03;;;;;;;10.43;3.20;;;;;;;;;;5047437;28;20582;-62
2023/05/25 09:15:29;;;;;;;12.27;3.57;;;;;;;;;;5047582;28;20037;-62
2023/05/25 09:17:56;;;;;;;17.90;4.17;;;;;;;;;;5047828;28;20045;-62
2023/05/25 09:20:22;;;;;;;14.40;4.23;;;;;;;;;;5047018;28;20128;-62
2023/05/25 09:22:48;;;;;;;17.43;3.73;;;;;;;;;;5047454;28;20471;-62
2023/05/25 09:25:17;;;;;;;12.27;4.33;;;;;;;;;;5047625;28;20048;-62
2023/05/25 09:27:44;;;;;;;14.73;3.90;;;;;;;;;;5047431;28;20099;-62
2023/05/25 09:30:11;;;;;;;10.13;3.10;;;;;;;;;;5047216;28;20135;-62
2023/05/25 09:32:37;;;;;;;13.27;4.17;;;;;;;;;;5047555;28;20061;-62
2023/05/25 09:35:10;;;;;;;13.53;3.80;;;;;;;;;;5047319;28;20049;-62
2023/05/25 09:37:36;;;;;;;14.05;4.43;;;;;;;;;;5044582;28;20119;-62
2023/05/25 09:40:04;;;;;;;16.17;4.33;;;;;;;;;;5036639;28;20751;-62
2023/05/25 09:42:32;;;;;;;16.70;3.60;;;;;;;;;;5029804;28;20115;-62
2023/05/25 09:44:58;;;;;;;18.93;3.90;;;;;;;;;;5027865;28;20049;-62
2023/05/25 09:47:25;;;;;;;15.17;4.10;;;;;;;;;;5026956;28;20050;-62
2023/05/25 09:49:51;;;;;;;16.87;4.07;;;;;;;;;;5045938;28;20135;-62
2023/05/25 09:52:17;;;;;;;13.97;3.87;;;;;;;;;;5047220;28;20419;-62
2023/05/25 09:54:53;;;;;;;13.47;4.40;;;;;;;;;;5033731;28;20166;-62
2023/05/25 09:57:20;;;;;;;16.20;4.57;;;;;;;;;;5038749;28;20053;-62
2023/05/25 09:59:46;;;;;;;22.53;5.00;;;;;;;;;;5039407;28;20148;-62
2023/05/25 10:02:13;;;;;;;16.20;3.87;;;;;;;;;;5031355;28;20041;-62
2023/05/25 10:04:40;;;;;;;19.80;4.97;;;;;;;;;;5032249;28;20084;-62
2023/05/25 10:07:06;;;;;;;19.57;5.00;;;;;;;;;;5041142;28;20478;-61
2023/05/25 10:09:35;;;;;;;17.23;4.87;;;;;;;;;;5039168;28;20053;-63
2023/05/25 10:12:01;;;;;;;12.40;4.67;;;;;;;;;;5044105;28;20056;-61
2023/05/25 10:14:28;;;;;;;13.63;4.40;;;;;;;;;;5040680;28;20130;-61
2023/05/25 10:16:56;;;;;;;15.13;4.00;;;;;;;;;;5043598;28;20183;-61
2023/05/25 10:19:28;;;;;;;18.53;4.97;;;;;;;;;;5050657;28;20052;-62
2023/05/25 10:21:58;;;;;;;17.80;4.70;;;;;;;;;;5031152;28;20485;-63
2023/05/25 10:24:31;;;;;;;18.30;4.60;;;;;;;;;;5030892;28;20132;-62
2023/05/25 10:27:00;;;;;;;14.82;4.15;;;;;;;;;;5042277;28;20129;-62
2023/05/25 10:29:27;;;;;;;19.40;4.70;;;;;;;;;;5037373;28;20053;-62
2023/05/25 10:31:53;;;;;;;11.93;3.73;;;;;;;;;;5037784;28;20140;-62
2023/05/25 10:34:20;;;;;;;13.23;3.87;;;;;;;;;;5050331;28;20632;-62
2023/05/25 10:36:47;;;;;;;15.67;4.60;;;;;;;;;;5050289;28;20068;-62
2023/05/25 10:39:14;;;;;;;17.30;5.00;;;;;;;;;;5050396;28;20076;-63
2023/05/25 10:41:41;;;;;;;16.20;5.27;;;;;;;;;;5049874;28;20052;-62
2023/05/25 10:44:08;;;;;;;19.17;5.77;;;;;;;;;;5033151;28;20052;-62
2023/05/25 10:46:35;;;;;;;12.20;4.50;;;;;;;;;;5029663;28;20928;-62
2023/05/25 10:49:01;;;;;;;13.90;4.47;;;;;;;;;;5030212;28;20045;-63
2023/05/25 10:51:37;;;;;;;13.30;4.43;;;;;;;;;;5034880;28;20389;-62
2023/05/25 10:54:03;;;;;;;16.38;5.57;;;;;;;;;;5033562;28;20587;-62
2023/05/25 10:56:29;;;;;;;18.35;5.18;;;;;;;;;;5049436;28;20037;-62
2023/05/25 10:58:55;;;;;;;14.52;4.47;;;;;;;;;;5050182;28;20127;-62
2023/05/25 11:01:22;;;;;;;18.60;5.50;;;;;;;;;;5049830;28;20688;-62
2023/05/25 11:03:54;;;;;;;14.43;4.35;;;;;;;;;;5049688;28;20696;-62
2023/05/25 11:06:20;;;;;;;;;;;;;;;;;;5047562;28;20049;-63
2023/05/25 11:08:50;;;;;;;17.02;4.18;;;;;;;;;;5038330;28;19932;-63
2023/05/25 11:11:16;;;;;;;14.23;5.07;;;;;;;;;;5029773;28;20124;-63
2023/05/25 11:13:46;;;;;;;15.93;4.63;;;;;;;;;;5033277;28;20131;-63
2023/05/25 11:16:23;;;;;;;18.70;5.03;;;;;;;;;;5048833;28;20059;-63
2023/05/25 11:18:57;;;;;;;13.15;4.18;;;;;;;;;;5049537;28;20407;-63
2023/05/25 11:21:23;;;;;;;17.67;4.43;;;;;;;;;;5049658;28;20049;-63
2023/05/25 11:23:55;;;;;;;16.88;4.75;;;;;;;;;;5034527;28;20449;-63
2023/05/25 11:26:25;;;;;;;17.98;4.93;;;;;;;;;;5029227;28;20053;-63
2023/05/25 11:28:52;;;;;;;16.42;4.75;;;;;;;;;;5029256;28;20060;-63
2023/05/25 11:31:22;;;;;;;17.92;5.07;;;;;;;;;;5029298;28;20151;-63
2023/05/25 11:33:50;;;;;;;15.88;4.50;;;;;;;;;;5030177;28;20057;-63
2023/05/25 11:36:19;;;;;;;15.70;4.90;;;;;;;;;;5029366;28;20091;-64
2023/05/25 11:38:45;;;;;;;17.52;4.85;;;;;;;;;;5028759;28;20055;-63
2023/05/25 11:41:21;;;;;;;16.42;4.90;;;;;;;;;;5028940;28;20099;-63
2023/05/25 11:43:52;;;;;;;16.17;4.82;;;;;;;;;;5036762;28;20044;-63
2023/05/25 11:46:18;;;;;;;14.98;5.15;;;;;;;;;;5048998;28;20099;-63
2023/05/25 11:48:51;;;;;;;14.45;4.72;;;;;;;;;;5048518;28;20102;-63
2023/05/25 11:51:21;;;;;;;19.38;5.45;;;;;;;;;;5049010;28;20045;-63
2023/05/25 11:53:47;;;;;;;15.85;5.07;;;;;;;;;;5045646;28;20531;-64
2023/05/25 11:56:15;;;;;;;13.75;4.47;;;;;;;;;;5034115;28;20045;-64
2023/05/25 11:58:43;;;;;;;15.75;4.85;;;;;;;;;;5028644;28;20492;-63
2023/05/25 12:01:25;;;;;;;15.13;5.43;;;;;;;;;;5029142;28;20114;-63
2023/05/25 12:03:54;;;;;;;18.67;5.80;;;;;;;;;;5048480;28;20045;-63
2023/05/25 12:06:26;;;;;;;15.80;5.82;;;;;;;;;;5048883;28;20049;-63
2023/05/25 12:08:53;;;;;;;15.23;5.05;;;;;;;;;;5047010;28;20055;-63
2023/05/25 12:11:26;;;;;;;16.08;5.40;;;;;;;;;;5048425;28;20055;-63
2023/05/25 12:13:53;;;;;;;19.67;5.72;;;;;;;;;;5048680;28;20546;-63
2023/05/25 12:16:19;;;;;;;13.02;4.78;;;;;;;;;;5048192;28;20049;-63
2023/05/25 12:18:45;;;;;;;17.60;5.97;;;;;;;;;;5047919;28;20144;-63
2023/05/25 12:21:11;;;;;;;14.50;4.97;;;;;;;;;;5048499;28;20045;-63
2023/05/25 12:23:37;;;;;;;16.10;5.85;;;;;;;;;;5048295;28;20075;-63
2023/05/25 12:26:12;;;;;;;14.23;5.07;;;;;;;;;;5048218;28;20045;-63
2023/05/25 12:28:38;;;;;;;14.77;5.72;;;;;;;;;;5048318;28;20048;-63
2023/05/25 12:31:24;;;;;;;18.08;5.75;;;;;;;;;;5047906;28;20052;-63
2023/05/25 12:34:08;;;;;;;14.73;5.15;;;;;;;;;;5048323;28;20052;-63
2023/05/25 12:36:41;;;;;;;15.90;4.88;;;;;;;;;;5048064;28;20059;-63
2023/05/25 12:39:08;;;;;;;15.43;5.35;;;;;;;;;;5048121;28;20045;-63
2023/05/25 12:41:47;;;;;;;15.63;5.32;;;;;;;;;;5047837;28;20040;-63
2023/05/25 12:44:17;;;;;;;16.95;5.57;;;;;;;;;;5047539;28;20041;-63
2023/05/25 12:46:43;;;;;;;15.20;5.47;;;;;;;;;;5047749;28;20574;-63
2023/05/25 12:49:24;;;;;;;17.33;5.32;;;;;;;;;;5048299;28;20044;-63
2023/05/25 12:51:50;;;;;;;13.00;4.88;;;;;;;;;;5047869;28;20086;-63
2023/05/25 12:54:17;;;;;;;15.57;5.13;;;;;;;;;;5047524;28;20131;-63
2023/05/25 12:56:58;;;;;;;17.08;5.43;;;;;;;;;;5047863;28;20052;-63
2023/05/25 12:59:24;;;;;;;16.63;4.95;;;;;;;;;;5047741;28;20432;-63
2023/05/25 13:01:50;;;;;;;18.15;6.68;;;;;;;;;;5047810;28;20045;-63
2023/05/25 13:04:16;;;;;;;18.85;6.13;;;;;;;;;;5047854;28;20057;-63
2023/05/25 13:06:42;;;;;;;16.80;5.75;;;;;;;;;;5047272;28;20186;-63
2023/05/25 13:09:08;;;;;;;16.42;5.47;;;;;;;;;;5047680;28;20119;-63
2023/05/25 13:11:34;;;;;;;16.45;5.60;;;;;;;;;;5047555;28;20530;-63
2023/05/25 13:14:00;;;;;;;16.88;6.10;;;;;;;;;;5047810;28;20463;-63
2023/05/25 13:16:28;;;;;;;12.63;5.03;;;;;;;;;;5047612;28;20048;-63
2023/05/25 13:18:54;;;;;;;16.85;5.80;;;;;;;;;;5047215;28;20779;-63
2023/05/25 13:21:20;;;;;;;14.75;5.30;;;;;;;;;;5047587;28;20136;-63
2023/05/25 13:23:46;;;;;;;15.52;5.07;;;;;;;;;;5047365;28;20132;-63
2023/05/25 13:26:12;;;;;;;15.52;5.60;;;;;;;;;;5047561;28;20496;-63
2023/05/25 13:28:39;;;;;;;18.08;6.60;;;;;;;;;;5047360;28;20681;-63
2023/05/25 13:31:05;;;;;;;16.60;5.78;;;;;;;;;;5047783;28;20089;-63
2023/05/25 13:33:31;;;;;;;14.70;5.05;;;;;;;;;;5050882;28;20049;-63
2023/05/25 13:35:57;;;;;;;12.93;5.35;;;;;;;;;;5051325;28;20045;-63
2023/05/25 13:38:23;;;;;;;14.30;5.07;;;;;;;;;;5051260;28;20056;-63
2023/05/25 13:40:49;;;;;;;16.90;5.50;;;;;;;;;;5051310;28;20533;-64
2023/05/25 13:43:15;;;;;;;14.43;5.38;;;;;;;;;;5050981;28;20076;-63
2023/05/25 13:45:41;;;;;;;13.07;4.93;;;;;;;;;;5050704;28;20072;-63
2023/05/25 13:48:07;;;;;;;15.43;5.75;;;;;;;;;;5051301;28;20048;-63
2023/05/25 13:50:33;;;;;;;13.13;5.47;;;;;;;;;;5051050;28;20428;-63
2023/05/25 13:53:00;;;;;;;13.95;4.65;;;;;;;;;;5050437;28;20052;-63
2023/05/25 13:55:26;;;;;;;11.73;5.07;;;;;;;;;;5051201;28;20056;-63
2023/05/25 13:57:52;;;;;;;14.52;5.45;;;;;;;;;;5051218;28;20052;-63
2023/05/25 14:00:18;;;;;;;15.40;5.22;;;;;;;;;;5050825;28;20056;-63
2023/05/25 14:02:44;;;;;;;16.60;5.53;;;;;;;;;;5050815;28;20045;-64
2023/05/25 14:05:10;;;;;;;16.60;5.80;;;;;;;;;;5050909;28;20045;-64
2023/05/25 14:07:40;;;;;;;15.50;5.30;;;;;;;;;;5050564;28;20052;-63
2023/05/25 14:10:06;;;;;;;15.32;5.07;;;;;;;;;;5050064;28;20053;-64
2023/05/25 14:12:32;;;;;;;18.30;5.60;;;;;;;;;;5050558;28;20044;-64
2023/05/25 14:14:58;;;;;;;15.45;5.72;;;;;;;;;;5050420;28;20088;-63
2023/05/25 14:17:24;;;;;;;14.07;5.30;;;;;;;;;;5050801;28;20403;-63
2023/05/25 14:19:50;;;;;;;15.38;5.90;;;;;;;;;;5050492;28;20465;-64
2023/05/25 14:22:16;;;;;;;17.75;5.07;;;;;;;;;;5050144;28;20078;-63
2023/05/25 14:24:42;;;;;;;15.73;5.05;;;;;;;;;;5050431;28;20092;-63
2023/05/25 14:27:09;;;;;;;16.95;5.60;;;;;;;;;;5050543;28;20099;-63